Bradshaw, West Virginia
Current Conditions -  °F | °C
As of 1:35 PM on Thursday 27 Nov 2014 (Local Time) from KJFZ Reporting Station
Overcast Overcast  
Wind Chill: 24°   Ceiling: 1000
Heat Index: 32°   Visibility: 10mi
Dew Point: 28°   Wind: 10mph
Humidity: 85%   Direction: 300°WNW
Pressure: 30.12"   Gusts: NA
Location:  37.35°N, 81.8°W
Report Text: KJFZ 271835Z AUTO 30009KT 10SM OVC010 00/M02 A3012 RMK AO2 T00001023
Loading
Personal Weather Stations






























Interactive Weather Map New forecast layout! Learn more

10-Day Weather Forecast

Advertisements
Track Severe Weather on mobile